sensor_id;sensor_type;location;lat;lon;timestamp;P1;durP1;ratioP1;P2;durP2;ratioP2
17494;SDS011;8864;51.970;4.614;2024-02-15T00:00:36;2.42;;;0.93;;
17494;SDS011;8864;51.970;4.614;2024-02-15T00:03:03;4.50;;;0.90;;
17494;SDS011;8864;51.970;4.614;2024-02-15T00:05:32;1.58;;;0.60;;
17494;SDS011;8864;51.970;4.614;2024-02-15T00:08:01;2.13;;;0.90;;
17494;SDS011;8864;51.970;4.614;2024-02-15T00:10:31;2.55;;;1.08;;
17494;SDS011;8864;51.970;4.614;2024-02-15T00:12:59;0.88;;;0.70;;
17494;SDS011;8864;51.970;4.614;2024-02-15T00:15:27;2.67;;;0.88;;
17494;SDS011;8864;51.970;4.614;2024-02-15T00:17:54;1.52;;;0.80;;
17494;SDS011;8864;51.970;4.614;2024-02-15T00:20:20;2.50;;;0.85;;
17494;SDS011;8864;51.970;4.614;2024-02-15T00:22:49;2.17;;;0.80;;
17494;SDS011;8864;51.970;4.614;2024-02-15T00:25:17;1.48;;;0.80;;
17494;SDS011;8864;51.970;4.614;2024-02-15T00:27:45;2.53;;;0.93;;
17494;SDS011;8864;51.970;4.614;2024-02-15T00:30:13;1.40;;;0.70;;
17494;SDS011;8864;51.970;4.614;2024-02-15T00:32:41;1.95;;;0.70;;
17494;SDS011;8864;51.970;4.614;2024-02-15T00:35:10;1.88;;;0.90;;
17494;SDS011;8864;51.970;4.614;2024-02-15T00:37:38;1.58;;;0.90;;
17494;SDS011;8864;51.970;4.614;2024-02-15T00:40:08;2.08;;;0.80;;
17494;SDS011;8864;51.970;4.614;2024-02-15T00:42:36;1.75;;;0.70;;
17494;SDS011;8864;51.970;4.614;2024-02-15T00:45:04;1.27;;;0.73;;
17494;SDS011;8864;51.970;4.614;2024-02-15T00:47:33;1.80;;;0.70;;
17494;SDS011;8864;51.970;4.614;2024-02-15T00:50:00;1.38;;;0.77;;
17494;SDS011;8864;51.970;4.614;2024-02-15T00:52:26;1.67;;;1.08;;
17494;SDS011;8864;51.970;4.614;2024-02-15T00:54:54;4.03;;;1.02;;
17494;SDS011;8864;51.970;4.614;2024-02-15T00:57:22;2.47;;;0.90;;
17494;SDS011;8864;51.970;4.614;2024-02-15T00:59:49;1.70;;;0.80;;
17494;SDS011;8864;51.970;4.614;2024-02-15T01:02:17;1.92;;;0.80;;
17494;SDS011;8864;51.970;4.614;2024-02-15T01:04:44;1.45;;;0.70;;
17494;SDS011;8864;51.970;4.614;2024-02-15T01:07:11;2.15;;;1.00;;
17494;SDS011;8864;51.970;4.614;2024-02-15T01:09:38;3.35;;;0.80;;
17494;SDS011;8864;51.970;4.614;2024-02-15T01:12:05;2.03;;;0.70;;
17494;SDS011;8864;51.970;4.614;2024-02-15T01:14:34;1.15;;;0.70;;
17494;SDS011;8864;51.970;4.614;2024-02-15T01:17:01;2.05;;;0.82;;
17494;SDS011;8864;51.970;4.614;2024-02-15T01:19:28;4.50;;;0.85;;
17494;SDS011;8864;51.970;4.614;2024-02-15T01:21:56;2.75;;;0.85;;
17494;SDS011;8864;51.970;4.614;2024-02-15T01:24:24;1.02;;;0.80;;
17494;SDS011;8864;51.970;4.614;2024-02-15T01:26:51;1.73;;;0.52;;
17494;SDS011;8864;51.970;4.614;2024-02-15T01:29:19;1.58;;;0.75;;
17494;SDS011;8864;51.970;4.614;2024-02-15T01:31:47;2.50;;;0.70;;
17494;SDS011;8864;51.970;4.614;2024-02-15T01:34:15;1.70;;;0.80;;
17494;SDS011;8864;51.970;4.614;2024-02-15T01:36:42;1.85;;;1.00;;
17494;SDS011;8864;51.970;4.614;2024-02-15T01:39:08;1.67;;;0.80;;
17494;SDS011;8864;51.970;4.614;2024-02-15T01:41:36;1.63;;;0.73;;
17494;SDS011;8864;51.970;4.614;2024-02-15T01:44:03;1.60;;;0.80;;
17494;SDS011;8864;51.970;4.614;2024-02-15T01:46:31;1.10;;;0.80;;
17494;SDS011;8864;51.970;4.614;2024-02-15T01:48:59;0.82;;;0.63;;
17494;SDS011;8864;51.970;4.614;2024-02-15T01:51:27;1.45;;;0.80;;
17494;SDS011;8864;51.970;4.614;2024-02-15T01:53:54;3.47;;;0.85;;
17494;SDS011;8864;51.970;4.614;2024-02-15T01:56:21;1.95;;;0.90;;
17494;SDS011;8864;51.970;4.614;2024-02-15T01:58:50;3.53;;;0.82;;
17494;SDS011;8864;51.970;4.614;2024-02-15T02:01:17;3.10;;;0.90;;
17494;SDS011;8864;51.970;4.614;2024-02-15T02:03:45;3.10;;;1.02;;
17494;SDS011;8864;51.970;4.614;2024-02-15T02:06:13;1.63;;;0.60;;
17494;SDS011;8864;51.970;4.614;2024-02-15T02:08:40;1.23;;;0.65;;
17494;SDS011;8864;51.970;4.614;2024-02-15T02:11:07;2.67;;;0.85;;
17494;SDS011;8864;51.970;4.614;2024-02-15T02:13:35;3.05;;;0.80;;
17494;SDS011;8864;51.970;4.614;2024-02-15T02:16:01;1.23;;;0.70;;
17494;SDS011;8864;51.970;4.614;2024-02-15T02:18:29;2.30;;;0.93;;
17494;SDS011;8864;51.970;4.614;2024-02-15T02:20:56;1.63;;;0.70;;
17494;SDS011;8864;51.970;4.614;2024-02-15T02:23:25;1.00;;;0.80;;
17494;SDS011;8864;51.970;4.614;2024-02-15T02:25:55;1.48;;;0.63;;
17494;SDS011;8864;51.970;4.614;2024-02-15T02:28:23;1.75;;;0.80;;
17494;SDS011;8864;51.970;4.614;2024-02-15T02:30:51;1.95;;;0.77;;
17494;SDS011;8864;51.970;4.614;2024-02-15T02:33:18;0.82;;;0.60;;
17494;SDS011;8864;51.970;4.614;2024-02-15T02:35:47;1.52;;;0.70;;
17494;SDS011;8864;51.970;4.614;2024-02-15T02:38:14;1.27;;;0.70;;
17494;SDS011;8864;51.970;4.614;2024-02-15T02:40:41;4.20;;;1.15;;
17494;SDS011;8864;51.970;4.614;2024-02-15T02:43:09;1.38;;;0.82;;
17494;SDS011;8864;51.970;4.614;2024-02-15T02:45:36;1.80;;;0.75;;
17494;SDS011;8864;51.970;4.614;2024-02-15T02:48:04;2.55;;;0.95;;
17494;SDS011;8864;51.970;4.614;2024-02-15T02:50:31;1.58;;;0.77;;
17494;SDS011;8864;51.970;4.614;2024-02-15T02:52:58;2.38;;;0.90;;
17494;SDS011;8864;51.970;4.614;2024-02-15T02:55:25;3.40;;;0.68;;
17494;SDS011;8864;51.970;4.614;2024-02-15T02:57:53;2.30;;;0.98;;
17494;SDS011;8864;51.970;4.614;2024-02-15T03:00:21;2.20;;;1.00;;
17494;SDS011;8864;51.970;4.614;2024-02-15T03:02:53;1.40;;;0.80;;
17494;SDS011;8864;51.970;4.614;2024-02-15T03:05:22;1.25;;;0.60;;
17494;SDS011;8864;51.970;4.614;2024-02-15T03:07:49;1.15;;;0.70;;
17494;SDS011;8864;51.970;4.614;2024-02-15T03:10:16;1.42;;;0.88;;
17494;SDS011;8864;51.970;4.614;2024-02-15T03:12:44;1.45;;;0.93;;
17494;SDS011;8864;51.970;4.614;2024-02-15T03:15:12;1.48;;;0.82;;
17494;SDS011;8864;51.970;4.614;2024-02-15T03:17:41;1.73;;;0.60;;
17494;SDS011;8864;51.970;4.614;2024-02-15T03:20:09;1.70;;;0.70;;
17494;SDS011;8864;51.970;4.614;2024-02-15T03:22:45;2.50;;;0.80;;
17494;SDS011;8864;51.970;4.614;2024-02-15T03:25:16;4.43;;;1.02;;
17494;SDS011;8864;51.970;4.614;2024-02-15T03:27:43;1.58;;;0.73;;
17494;SDS011;8864;51.970;4.614;2024-02-15T03:30:10;1.73;;;0.82;;
17494;SDS011;8864;51.970;4.614;2024-02-15T03:32:40;3.35;;;0.80;;
17494;SDS011;8864;51.970;4.614;2024-02-15T03:35:07;3.60;;;0.73;;
17494;SDS011;8864;51.970;4.614;2024-02-15T03:37:34;1.40;;;0.77;;
17494;SDS011;8864;51.970;4.614;2024-02-15T03:40:05;1.73;;;0.80;;
17494;SDS011;8864;51.970;4.614;2024-02-15T03:42:33;1.52;;;0.65;;
17494;SDS011;8864;51.970;4.614;2024-02-15T03:45:02;2.60;;;1.00;;
17494;SDS011;8864;51.970;4.614;2024-02-15T03:47:29;3.47;;;1.10;;
17494;SDS011;8864;51.970;4.614;2024-02-15T03:49:57;1.48;;;0.73;;
17494;SDS011;8864;51.970;4.614;2024-02-15T03:52:24;1.65;;;0.77;;
17494;SDS011;8864;51.970;4.614;2024-02-15T03:54:51;1.65;;;0.73;;
17494;SDS011;8864;51.970;4.614;2024-02-15T03:57:18;1.38;;;0.80;;
17494;SDS011;8864;51.970;4.614;2024-02-15T03:59:46;3.50;;;1.08;;
17494;SDS011;8864;51.970;4.614;2024-02-15T04:02:15;2.28;;;0.98;;
17494;SDS011;8864;51.970;4.614;2024-02-15T04:04:43;2.05;;;0.90;;
17494;SDS011;8864;51.970;4.614;2024-02-15T04:07:14;2.13;;;0.88;;
17494;SDS011;8864;51.970;4.614;2024-02-15T04:09:41;2.10;;;0.75;;
17494;SDS011;8864;51.970;4.614;2024-02-15T04:12:08;1.38;;;0.80;;
17494;SDS011;8864;51.970;4.614;2024-02-15T04:14:35;2.33;;;0.80;;
17494;SDS011;8864;51.970;4.614;2024-02-15T04:17:03;1.83;;;0.88;;
17494;SDS011;8864;51.970;4.614;2024-02-15T04:19:30;1.38;;;0.88;;
17494;SDS011;8864;51.970;4.614;2024-02-15T04:21:57;2.38;;;0.77;;
17494;SDS011;8864;51.970;4.614;2024-02-15T04:24:27;3.40;;;0.80;;
17494;SDS011;8864;51.970;4.614;2024-02-15T04:26:55;2.90;;;0.98;;
17494;SDS011;8864;51.970;4.614;2024-02-15T04:29:21;3.53;;;1.08;;
17494;SDS011;8864;51.970;4.614;2024-02-15T04:31:48;1.50;;;0.90;;
17494;SDS011;8864;51.970;4.614;2024-02-15T04:34:16;2.25;;;0.70;;
17494;SDS011;8864;51.970;4.614;2024-02-15T04:36:43;3.20;;;1.02;;
17494;SDS011;8864;51.970;4.614;2024-02-15T04:39:15;3.13;;;1.25;;
17494;SDS011;8864;51.970;4.614;2024-02-15T04:41:50;2.42;;;1.10;;
17494;SDS011;8864;51.970;4.614;2024-02-15T04:44:17;2.58;;;1.25;;
17494;SDS011;8864;51.970;4.614;2024-02-15T04:46:45;2.53;;;1.10;;
17494;SDS011;8864;51.970;4.614;2024-02-15T04:49:12;1.92;;;0.88;;
17494;SDS011;8864;51.970;4.614;2024-02-15T04:51:39;1.48;;;1.08;;
17494;SDS011;8864;51.970;4.614;2024-02-15T04:54:07;2.70;;;0.80;;
17494;SDS011;8864;51.970;4.614;2024-02-15T04:56:38;2.38;;;1.10;;
17494;SDS011;8864;51.970;4.614;2024-02-15T04:59:06;2.45;;;0.95;;
17494;SDS011;8864;51.970;4.614;2024-02-15T05:01:34;2.88;;;1.05;;
17494;SDS011;8864;51.970;4.614;2024-02-15T05:04:01;2.53;;;1.10;;
17494;SDS011;8864;51.970;4.614;2024-02-15T05:06:29;2.60;;;0.88;;
17494;SDS011;8864;51.970;4.614;2024-02-15T05:08:57;1.48;;;1.00;;
17494;SDS011;8864;51.970;4.614;2024-02-15T05:11:25;1.50;;;1.00;;
17494;SDS011;8864;51.970;4.614;2024-02-15T05:13:54;1.58;;;0.90;;
17494;SDS011;8864;51.970;4.614;2024-02-15T05:16:22;2.33;;;0.80;;
17494;SDS011;8864;51.970;4.614;2024-02-15T05:18:49;2.38;;;1.10;;
17494;SDS011;8864;51.970;4.614;2024-02-15T05:21:16;3.13;;;1.00;;
17494;SDS011;8864;51.970;4.614;2024-02-15T05:23:43;1.63;;;1.02;;
17494;SDS011;8864;51.970;4.614;2024-02-15T05:26:11;2.35;;;1.00;;
17494;SDS011;8864;51.970;4.614;2024-02-15T05:28:41;1.42;;;0.80;;
17494;SDS011;8864;51.970;4.614;2024-02-15T05:31:09;1.75;;;1.00;;
17494;SDS011;8864;51.970;4.614;2024-02-15T05:33:39;1.65;;;0.70;;
17494;SDS011;8864;51.970;4.614;2024-02-15T05:36:09;3.05;;;0.95;;
17494;SDS011;8864;51.970;4.614;2024-02-15T05:38:37;3.50;;;1.00;;
17494;SDS011;8864;51.970;4.614;2024-02-15T05:41:04;1.73;;;1.00;;
17494;SDS011;8864;51.970;4.614;2024-02-15T05:43:32;2.72;;;0.98;;
17494;SDS011;8864;51.970;4.614;2024-02-15T05:46:01;2.20;;;1.00;;
17494;SDS011;8864;51.970;4.614;2024-02-15T05:48:28;2.75;;;0.85;;
17494;SDS011;8864;51.970;4.614;2024-02-15T05:50:57;1.70;;;0.98;;
17494;SDS011;8864;51.970;4.614;2024-02-15T05:53:24;4.72;;;0.90;;
17494;SDS011;8864;51.970;4.614;2024-02-15T05:55:51;1.65;;;1.10;;
17494;SDS011;8864;51.970;4.614;2024-02-15T05:58:18;3.47;;;1.02;;
17494;SDS011;8864;51.970;4.614;2024-02-15T06:00:46;1.80;;;0.80;;
17494;SDS011;8864;51.970;4.614;2024-02-15T06:03:14;2.67;;;1.00;;
17494;SDS011;8864;51.970;4.614;2024-02-15T06:05:41;2.70;;;1.25;;
17494;SDS011;8864;51.970;4.614;2024-02-15T06:08:11;3.88;;;1.08;;
17494;SDS011;8864;51.970;4.614;2024-02-15T06:10:38;1.95;;;0.88;;
17494;SDS011;8864;51.970;4.614;2024-02-15T06:13:06;2.03;;;1.10;;
17494;SDS011;8864;51.970;4.614;2024-02-15T06:15:37;4.22;;;1.10;;
17494;SDS011;8864;51.970;4.614;2024-02-15T06:18:04;2.08;;;1.00;;
17494;SDS011;8864;51.970;4.614;2024-02-15T06:20:34;2.47;;;1.10;;
17494;SDS011;8864;51.970;4.614;2024-02-15T06:23:01;2.35;;;0.98;;
17494;SDS011;8864;51.970;4.614;2024-02-15T06:25:31;2.40;;;1.00;;
17494;SDS011;8864;51.970;4.614;2024-02-15T06:27:58;3.28;;;1.20;;
17494;SDS011;8864;51.970;4.614;2024-02-15T06:30:27;1.92;;;1.02;;
17494;SDS011;8864;51.970;4.614;2024-02-15T06:33:12;2.50;;;0.98;;
17494;SDS011;8864;51.970;4.614;2024-02-15T06:35:56;2.72;;;1.08;;
17494;SDS011;8864;51.970;4.614;2024-02-15T06:38:40;1.02;;;0.80;;
17494;SDS011;8864;51.970;4.614;2024-02-15T06:41:26;1.50;;;0.80;;
17494;SDS011;8864;51.970;4.614;2024-02-15T06:43:54;1.92;;;0.90;;
17494;SDS011;8864;51.970;4.614;2024-02-15T06:46:21;1.67;;;0.90;;
17494;SDS011;8864;51.970;4.614;2024-02-15T06:48:48;1.80;;;0.90;;
17494;SDS011;8864;51.970;4.614;2024-02-15T06:51:14;2.22;;;1.00;;
17494;SDS011;8864;51.970;4.614;2024-02-15T06:53:41;1.80;;;0.80;;
17494;SDS011;8864;51.970;4.614;2024-02-15T06:56:08;2.05;;;1.00;;
17494;SDS011;8864;51.970;4.614;2024-02-15T06:58:38;3.42;;;0.93;;
17494;SDS011;8864;51.970;4.614;2024-02-15T07:01:05;5.22;;;1.02;;
17494;SDS011;8864;51.970;4.614;2024-02-15T07:03:32;1.15;;;0.73;;
17494;SDS011;8864;51.970;4.614;2024-02-15T07:05:59;2.20;;;0.80;;
17494;SDS011;8864;51.970;4.614;2024-02-15T07:08:27;1.13;;;0.80;;
17494;SDS011;8864;51.970;4.614;2024-02-15T07:10:54;1.52;;;0.93;;
17494;SDS011;8864;51.970;4.614;2024-02-15T07:13:21;1.38;;;0.70;;
17494;SDS011;8864;51.970;4.614;2024-02-15T07:15:50;0.90;;;0.70;;
17494;SDS011;8864;51.970;4.614;2024-02-15T07:18:17;1.85;;;0.80;;
17494;SDS011;8864;51.970;4.614;2024-02-15T07:20:45;1.17;;;0.80;;
17494;SDS011;8864;51.970;4.614;2024-02-15T07:23:12;1.35;;;0.60;;
17494;SDS011;8864;51.970;4.614;2024-02-15T07:25:39;1.15;;;0.90;;
17494;SDS011;8864;51.970;4.614;2024-02-15T07:28:07;2.03;;;0.77;;
17494;SDS011;8864;51.970;4.614;2024-02-15T07:30:34;1.83;;;0.80;;
17494;SDS011;8864;51.970;4.614;2024-02-15T07:33:03;0.95;;;0.77;;
17494;SDS011;8864;51.970;4.614;2024-02-15T07:35:31;3.13;;;0.80;;
17494;SDS011;8864;51.970;4.614;2024-02-15T07:38:00;1.05;;;0.70;;
17494;SDS011;8864;51.970;4.614;2024-02-15T07:40:27;1.00;;;0.70;;
17494;SDS011;8864;51.970;4.614;2024-02-15T07:42:56;1.42;;;0.82;;
17494;SDS011;8864;51.970;4.614;2024-02-15T07:45:23;1.67;;;0.80;;
17494;SDS011;8864;51.970;4.614;2024-02-15T07:47:50;1.48;;;0.80;;
17494;SDS011;8864;51.970;4.614;2024-02-15T07:50:19;1.88;;;0.90;;
17494;SDS011;8864;51.970;4.614;2024-02-15T07:52:48;1.08;;;0.63;;
17494;SDS011;8864;51.970;4.614;2024-02-15T07:55:16;1.50;;;0.90;;
17494;SDS011;8864;51.970;4.614;2024-02-15T07:57:43;2.97;;;1.05;;
17494;SDS011;8864;51.970;4.614;2024-02-15T08:00:11;1.38;;;0.95;;
17494;SDS011;8864;51.970;4.614;2024-02-15T08:02:41;1.83;;;0.77;;
17494;SDS011;8864;51.970;4.614;2024-02-15T08:07:40;1.20;;;0.90;;
17494;SDS011;8864;51.970;4.614;2024-02-15T08:10:09;3.78;;;1.05;;
17494;SDS011;8864;51.970;4.614;2024-02-15T08:12:39;17.55;;;3.20;;
17494;SDS011;8864;51.970;4.614;2024-02-15T08:15:07;13.57;;;3.03;;
17494;SDS011;8864;51.970;4.614;2024-02-15T08:17:37;19.58;;;3.20;;
17494;SDS011;8864;51.970;4.614;2024-02-15T08:20:06;10.90;;;3.40;;
17494;SDS011;8864;51.970;4.614;2024-02-15T08:22:34;17.33;;;3.40;;
17494;SDS011;8864;51.970;4.614;2024-02-15T08:25:05;31.58;;;3.60;;
17494;SDS011;8864;51.970;4.614;2024-02-15T08:27:35;15.77;;;3.20;;
17494;SDS011;8864;51.970;4.614;2024-02-15T08:30:07;13.15;;;2.95;;
17494;SDS011;8864;51.970;4.614;2024-02-15T08:32:35;11.13;;;2.97;;
17494;SDS011;8864;51.970;4.614;2024-02-15T08:35:03;13.43;;;3.10;;
17494;SDS011;8864;51.970;4.614;2024-02-15T08:37:31;10.23;;;2.45;;
17494;SDS011;8864;51.970;4.614;2024-02-15T08:39:59;11.95;;;2.85;;
17494;SDS011;8864;51.970;4.614;2024-02-15T08:42:28;11.07;;;3.05;;
17494;SDS011;8864;51.970;4.614;2024-02-15T08:44:55;11.23;;;3.10;;
17494;SDS011;8864;51.970;4.614;2024-02-15T08:47:24;13.13;;;3.33;;
17494;SDS011;8864;51.970;4.614;2024-02-15T08:49:52;13.93;;;3.15;;
17494;SDS011;8864;51.970;4.614;2024-02-15T08:52:19;8.73;;;2.83;;
17494;SDS011;8864;51.970;4.614;2024-02-15T08:54:46;8.77;;;2.72;;
17494;SDS011;8864;51.970;4.614;2024-02-15T08:57:13;11.07;;;3.33;;
17494;SDS011;8864;51.970;4.614;2024-02-15T08:59:41;10.15;;;3.00;;
17494;SDS011;8864;51.970;4.614;2024-02-15T09:02:08;11.85;;;3.13;;
17494;SDS011;8864;51.970;4.614;2024-02-15T09:04:35;12.88;;;3.13;;
17494;SDS011;8864;51.970;4.614;2024-02-15T09:07:02;10.30;;;3.20;;
17494;SDS011;8864;51.970;4.614;2024-02-15T09:09:29;7.38;;;2.58;;
17494;SDS011;8864;51.970;4.614;2024-02-15T09:12:00;9.55;;;2.67;;
17494;SDS011;8864;51.970;4.614;2024-02-15T09:14:30;10.73;;;2.60;;
17494;SDS011;8864;51.970;4.614;2024-02-15T09:16:59;6.93;;;2.53;;
17494;SDS011;8864;51.970;4.614;2024-02-15T09:19:26;8.77;;;3.00;;
17494;SDS011;8864;51.970;4.614;2024-02-15T09:21:53;5.78;;;2.08;;
17494;SDS011;8864;51.970;4.614;2024-02-15T09:24:22;8.05;;;2.33;;
17494;SDS011;8864;51.970;4.614;2024-02-15T09:26:52;9.10;;;2.50;;
17494;SDS011;8864;51.970;4.614;2024-02-15T09:29:19;8.52;;;2.25;;
17494;SDS011;8864;51.970;4.614;2024-02-15T09:31:49;11.60;;;2.70;;
17494;SDS011;8864;51.970;4.614;2024-02-15T09:34:19;6.50;;;2.25;;
17494;SDS011;8864;51.970;4.614;2024-02-15T09:36:46;15.52;;;2.90;;
17494;SDS011;8864;51.970;4.614;2024-02-15T09:39:13;16.83;;;2.50;;
17494;SDS011;8864;51.970;4.614;2024-02-15T09:41:40;24.02;;;2.45;;
17494;SDS011;8864;51.970;4.614;2024-02-15T09:44:08;6.20;;;2.53;;
17494;SDS011;8864;51.970;4.614;2024-02-15T09:46:42;9.40;;;2.40;;
17494;SDS011;8864;51.970;4.614;2024-02-15T09:49:11;8.00;;;2.30;;
17494;SDS011;8864;51.970;4.614;2024-02-15T09:51:41;16.98;;;2.80;;
17494;SDS011;8864;51.970;4.614;2024-02-15T09:54:09;22.20;;;4.32;;
17494;SDS011;8864;51.970;4.614;2024-02-15T09:56:38;23.67;;;4.18;;
17494;SDS011;8864;51.970;4.614;2024-02-15T09:59:07;16.05;;;4.05;;
17494;SDS011;8864;51.970;4.614;2024-02-15T10:01:34;18.15;;;4.10;;
17494;SDS011;8864;51.970;4.614;2024-02-15T10:04:05;17.50;;;3.83;;
17494;SDS011;8864;51.970;4.614;2024-02-15T10:06:33;17.35;;;3.58;;
17494;SDS011;8864;51.970;4.614;2024-02-15T10:11:54;15.23;;;3.72;;
17494;SDS011;8864;51.970;4.614;2024-02-15T10:14:22;15.52;;;3.55;;
17494;SDS011;8864;51.970;4.614;2024-02-15T10:16:50;15.10;;;3.38;;
17494;SDS011;8864;51.970;4.614;2024-02-15T10:19:18;21.13;;;3.65;;
17494;SDS011;8864;51.970;4.614;2024-02-15T10:21:50;15.85;;;3.42;;
17494;SDS011;8864;51.970;4.614;2024-02-15T10:24:20;16.60;;;3.88;;
17494;SDS011;8864;51.970;4.614;2024-02-15T10:26:51;11.90;;;2.83;;
17494;SDS011;8864;51.970;4.614;2024-02-15T10:29:19;11.55;;;2.80;;
17494;SDS011;8864;51.970;4.614;2024-02-15T10:31:53;11.38;;;3.03;;
17494;SDS011;8864;51.970;4.614;2024-02-15T10:34:21;12.35;;;2.80;;
17494;SDS011;8864;51.970;4.614;2024-02-15T10:36:48;10.15;;;2.60;;
17494;SDS011;8864;51.970;4.614;2024-02-15T10:39:16;9.93;;;2.88;;
17494;SDS011;8864;51.970;4.614;2024-02-15T10:41:45;9.93;;;2.67;;
17494;SDS011;8864;51.970;4.614;2024-02-15T10:44:18;9.75;;;2.38;;
17494;SDS011;8864;51.970;4.614;2024-02-15T10:46:46;11.57;;;2.65;;
17494;SDS011;8864;51.970;4.614;2024-02-15T10:49:21;11.90;;;2.75;;
17494;SDS011;8864;51.970;4.614;2024-02-15T10:51:55;7.68;;;2.45;;
17494;SDS011;8864;51.970;4.614;2024-02-15T10:54:26;11.05;;;2.78;;
17494;SDS011;8864;51.970;4.614;2024-02-15T10:57:06;12.20;;;2.70;;
17494;SDS011;8864;51.970;4.614;2024-02-15T10:59:37;6.60;;;2.05;;
17494;SDS011;8864;51.970;4.614;2024-02-15T11:02:11;6.85;;;2.22;;
17494;SDS011;8864;51.970;4.614;2024-02-15T11:04:50;5.85;;;2.17;;
17494;SDS011;8864;51.970;4.614;2024-02-15T11:07:21;7.78;;;2.30;;
17494;SDS011;8864;51.970;4.614;2024-02-15T11:09:51;4.88;;;1.80;;
17494;SDS011;8864;51.970;4.614;2024-02-15T11:12:18;7.22;;;1.83;;
17494;SDS011;8864;51.970;4.614;2024-02-15T11:14:49;5.63;;;1.83;;
17494;SDS011;8864;51.970;4.614;2024-02-15T11:23:11;8.13;;;2.17;;
17494;SDS011;8864;51.970;4.614;2024-02-15T11:25:51;9.55;;;2.58;;
17494;SDS011;8864;51.970;4.614;2024-02-15T11:28:38;5.20;;;1.80;;
17494;SDS011;8864;51.970;4.614;2024-02-15T11:31:17;6.53;;;1.92;;
17494;SDS011;8864;51.970;4.614;2024-02-15T11:40:11;4.95;;;1.70;;
17494;SDS011;8864;51.970;4.614;2024-02-15T11:42:38;5.57;;;1.80;;
17494;SDS011;8864;51.970;4.614;2024-02-15T11:45:05;6.45;;;1.90;;
17494;SDS011;8864;51.970;4.614;2024-02-15T11:47:36;2.58;;;1.63;;
17494;SDS011;8864;51.970;4.614;2024-02-15T11:50:05;5.47;;;1.60;;
17494;SDS011;8864;51.970;4.614;2024-02-15T11:52:37;5.90;;;1.70;;
17494;SDS011;8864;51.970;4.614;2024-02-15T11:55:06;4.50;;;1.73;;
17494;SDS011;8864;51.970;4.614;2024-02-15T11:57:35;3.63;;;1.40;;
17494;SDS011;8864;51.970;4.614;2024-02-15T12:00:18;3.22;;;1.77;;
17494;SDS011;8864;51.970;4.614;2024-02-15T12:03:02;3.50;;;1.48;;
17494;SDS011;8864;51.970;4.614;2024-02-15T12:05:48;2.72;;;1.30;;
17494;SDS011;8864;51.970;4.614;2024-02-15T12:08:34;4.30;;;1.45;;
17494;SDS011;8864;51.970;4.614;2024-02-15T12:11:19;5.03;;;1.52;;
17494;SDS011;8864;51.970;4.614;2024-02-15T12:14:03;4.20;;;1.33;;
17494;SDS011;8864;51.970;4.614;2024-02-15T12:16:58;5.57;;;1.40;;
17494;SDS011;8864;51.970;4.614;2024-02-15T12:19:41;2.55;;;1.35;;
17494;SDS011;8864;51.970;4.614;2024-02-15T12:22:08;2.67;;;1.30;;
17494;SDS011;8864;51.970;4.614;2024-02-15T12:24:36;2.88;;;1.42;;
17494;SDS011;8864;51.970;4.614;2024-02-15T12:27:03;3.90;;;1.38;;
17494;SDS011;8864;51.970;4.614;2024-02-15T12:29:30;1.75;;;1.10;;
17494;SDS011;8864;51.970;4.614;2024-02-15T12:31:58;5.55;;;1.20;;
17494;SDS011;8864;51.970;4.614;2024-02-15T12:34:25;1.73;;;1.00;;
17494;SDS011;8864;51.970;4.614;2024-02-15T12:37:04;3.55;;;1.40;;
17494;SDS011;8864;51.970;4.614;2024-02-15T12:39:31;3.80;;;1.45;;
17494;SDS011;8864;51.970;4.614;2024-02-15T12:41:59;3.90;;;1.33;;
17494;SDS011;8864;51.970;4.614;2024-02-15T12:44:26;3.35;;;1.40;;
17494;SDS011;8864;51.970;4.614;2024-02-15T12:46:57;5.93;;;1.55;;
17494;SDS011;8864;51.970;4.614;2024-02-15T12:49:29;3.15;;;1.30;;
17494;SDS011;8864;51.970;4.614;2024-02-15T12:55:07;2.75;;;1.35;;
17494;SDS011;8864;51.970;4.614;2024-02-15T12:57:39;2.53;;;0.88;;
17494;SDS011;8864;51.970;4.614;2024-02-15T13:00:10;3.17;;;1.23;;
17494;SDS011;8864;51.970;4.614;2024-02-15T13:02:39;4.97;;;1.25;;
17494;SDS011;8864;51.970;4.614;2024-02-15T13:05:07;2.63;;;1.13;;
17494;SDS011;8864;51.970;4.614;2024-02-15T13:07:37;2.55;;;1.38;;
17494;SDS011;8864;51.970;4.614;2024-02-15T13:10:05;2.22;;;1.17;;
17494;SDS011;8864;51.970;4.614;2024-02-15T13:12:33;3.78;;;0.95;;
17494;SDS011;8864;51.970;4.614;2024-02-15T13:15:01;4.28;;;1.20;;
17494;SDS011;8864;51.970;4.614;2024-02-15T13:17:30;4.25;;;1.02;;
17494;SDS011;8864;51.970;4.614;2024-02-15T13:19:58;5.90;;;1.20;;
17494;SDS011;8864;51.970;4.614;2024-02-15T13:22:30;3.75;;;1.60;;
17494;SDS011;8864;51.970;4.614;2024-02-15T13:24:58;4.60;;;1.23;;
17494;SDS011;8864;51.970;4.614;2024-02-15T13:27:28;7.15;;;1.48;;
17494;SDS011;8864;51.970;4.614;2024-02-15T13:29:56;5.00;;;1.70;;
17494;SDS011;8864;51.970;4.614;2024-02-15T13:32:23;3.15;;;1.30;;
17494;SDS011;8864;51.970;4.614;2024-02-15T13:34:50;3.20;;;1.30;;
17494;SDS011;8864;51.970;4.614;2024-02-15T13:37:21;2.33;;;1.15;;
17494;SDS011;8864;51.970;4.614;2024-02-15T13:39:48;3.58;;;1.23;;
17494;SDS011;8864;51.970;4.614;2024-02-15T13:42:17;2.60;;;1.20;;
17494;SDS011;8864;51.970;4.614;2024-02-15T13:44:45;5.63;;;1.30;;
17494;SDS011;8864;51.970;4.614;2024-02-15T13:47:12;3.53;;;1.10;;
17494;SDS011;8864;51.970;4.614;2024-02-15T13:49:41;5.75;;;1.10;;
17494;SDS011;8864;51.970;4.614;2024-02-15T13:52:08;6.68;;;1.10;;
17494;SDS011;8864;51.970;4.614;2024-02-15T13:54:36;2.78;;;1.27;;
17494;SDS011;8864;51.970;4.614;2024-02-15T13:57:03;2.70;;;1.10;;
17494;SDS011;8864;51.970;4.614;2024-02-15T13:59:32;4.10;;;1.40;;
17494;SDS011;8864;51.970;4.614;2024-02-15T14:02:00;4.03;;;1.20;;
17494;SDS011;8864;51.970;4.614;2024-02-15T14:04:28;3.55;;;1.40;;
17494;SDS011;8864;51.970;4.614;2024-02-15T14:06:57;4.72;;;1.30;;
17494;SDS011;8864;51.970;4.614;2024-02-15T14:09:27;5.15;;;1.50;;
17494;SDS011;8864;51.970;4.614;2024-02-15T14:11:54;4.20;;;1.17;;
17494;SDS011;8864;51.970;4.614;2024-02-15T14:14:21;6.60;;;1.20;;
17494;SDS011;8864;51.970;4.614;2024-02-15T14:16:48;4.10;;;1.42;;
17494;SDS011;8864;51.970;4.614;2024-02-15T14:19:16;4.95;;;1.35;;
17494;SDS011;8864;51.970;4.614;2024-02-15T14:21:43;9.10;;;1.48;;
17494;SDS011;8864;51.970;4.614;2024-02-15T14:24:10;6.55;;;1.63;;
17494;SDS011;8864;51.970;4.614;2024-02-15T14:26:38;4.93;;;1.50;;
17494;SDS011;8864;51.970;4.614;2024-02-15T14:29:05;4.90;;;1.40;;
17494;SDS011;8864;51.970;4.614;2024-02-15T14:31:32;3.65;;;1.25;;
17494;SDS011;8864;51.970;4.614;2024-02-15T14:34:18;4.80;;;1.52;;
17494;SDS011;8864;51.970;4.614;2024-02-15T14:36:45;7.57;;;1.60;;
17494;SDS011;8864;51.970;4.614;2024-02-15T14:39:13;8.02;;;1.48;;
17494;SDS011;8864;51.970;4.614;2024-02-15T14:41:40;2.70;;;1.35;;
17494;SDS011;8864;51.970;4.614;2024-02-15T14:44:09;3.22;;;1.35;;
17494;SDS011;8864;51.970;4.614;2024-02-15T14:46:35;3.78;;;1.50;;
17494;SDS011;8864;51.970;4.614;2024-02-15T14:49:02;4.07;;;1.60;;
17494;SDS011;8864;51.970;4.614;2024-02-15T14:51:31;2.63;;;1.15;;
17494;SDS011;8864;51.970;4.614;2024-02-15T14:54:01;5.40;;;1.63;;
17494;SDS011;8864;51.970;4.614;2024-02-15T14:56:29;3.50;;;1.42;;
17494;SDS011;8864;51.970;4.614;2024-02-15T14:58:58;3.53;;;1.48;;
17494;SDS011;8864;51.970;4.614;2024-02-15T15:01:25;4.32;;;1.40;;
17494;SDS011;8864;51.970;4.614;2024-02-15T15:03:54;5.22;;;1.35;;
17494;SDS011;8864;51.970;4.614;2024-02-15T15:06:23;4.03;;;1.42;;
17494;SDS011;8864;51.970;4.614;2024-02-15T15:09:09;3.55;;;1.40;;
17494;SDS011;8864;51.970;4.614;2024-02-15T15:11:54;2.83;;;1.38;;
17494;SDS011;8864;51.970;4.614;2024-02-15T15:14:39;2.55;;;1.30;;
17494;SDS011;8864;51.970;4.614;2024-02-15T15:17:07;2.30;;;1.30;;
17494;SDS011;8864;51.970;4.614;2024-02-15T15:19:35;4.60;;;1.67;;
17494;SDS011;8864;51.970;4.614;2024-02-15T15:22:02;5.55;;;1.45;;
17494;SDS011;8864;51.970;4.614;2024-02-15T15:24:33;7.15;;;1.40;;
17494;SDS011;8864;51.970;4.614;2024-02-15T15:27:02;1.67;;;1.15;;
17494;SDS011;8864;51.970;4.614;2024-02-15T15:29:35;5.28;;;1.60;;
17494;SDS011;8864;51.970;4.614;2024-02-15T15:32:02;3.47;;;1.30;;